createdAt,value
2023-03-28T00:02:01.579Z,101123.97
2023-03-28T00:04:50.629Z,101123.03
2023-03-28T00:07:39.707Z,101117.72
2023-03-28T00:10:29.901Z,101126.63
2023-03-28T00:13:21.309Z,101125.09
2023-03-28T00:16:12.770Z,101134.03
2023-03-28T00:19:02.572Z,101129.00
2023-03-28T00:21:51.587Z,101130.53
2023-03-28T00:24:40.129Z,101132.75
2023-03-28T00:27:29.734Z,101133.31
2023-03-28T00:30:19.570Z,101133.59
2023-03-28T00:33:08.875Z,101143.63
2023-03-28T00:35:57.806Z,101140.44
2023-03-28T00:38:46.545Z,101080.00
2023-03-28T00:41:39.861Z,101138.72
2023-03-28T00:44:44.789Z,101144.28
2023-03-28T00:47:40.680Z,101149.84
2023-03-28T00:50:30.943Z,101129.69
2023-03-28T00:53:21.030Z,101151.06
2023-03-28T00:56:11.567Z,101149.09
2023-03-28T00:59:09.031Z,101146.31
2023-03-28T01:01:57.679Z,101146.00
2023-03-28T01:04:52.188Z,101151.88
2023-03-28T01:07:45.346Z,101145.69
2023-03-28T01:10:34.590Z,101150.72
2023-03-28T01:13:26.603Z,101161.47
2023-03-28T01:16:15.837Z,101156.56
2023-03-28T01:19:05.272Z,101156.81
2023-03-28T01:22:13.208Z,101156.41
2023-03-28T01:25:28.356Z,101158.44
2023-03-28T01:28:28.371Z,101158.16
2023-03-28T01:31:43.481Z,101155.03
2023-03-28T01:34:44.737Z,101164.09
2023-03-28T01:37:43.207Z,101166.03
2023-03-28T01:40:38.140Z,101158.03
2023-03-28T01:43:33.189Z,101166.56
2023-03-28T01:46:24.732Z,101174.75
2023-03-28T01:49:18.777Z,101168.81
2023-03-28T01:52:13.478Z,101161.50
2023-03-28T01:55:08.429Z,101173.41
2023-03-28T01:57:59.662Z,101163.97
2023-03-28T02:00:54.584Z,101173.97
2023-03-28T02:03:47.816Z,101165.97
2023-03-28T02:06:38.527Z,101164.22
2023-03-28T02:09:28.160Z,101172.03
2023-03-28T02:12:21.489Z,101164.22
2023-03-28T02:15:12.503Z,101169.44
2023-03-28T02:18:04.518Z,101157.31
2023-03-28T02:20:55.436Z,101161.16
2023-03-28T02:23:47.285Z,101158.06
2023-03-28T02:26:35.823Z,101153.72
2023-03-28T02:29:28.437Z,101152.06
2023-03-28T02:32:17.504Z,101158.56
2023-03-28T02:35:09.113Z,101159.66
2023-03-28T02:38:04.528Z,101166.88
2023-03-28T02:40:56.550Z,101162.56
2023-03-28T02:44:04.137Z,101169.28
2023-03-28T02:47:00.072Z,101127.75
2023-03-28T02:49:56.534Z,101165.22
2023-03-28T02:52:51.889Z,101161.13
2023-03-28T02:55:44.613Z,101165.81
2023-03-28T02:58:37.566Z,101159.34
2023-03-28T03:01:29.033Z,101111.44
2023-03-28T03:04:19.102Z,101168.13
2023-03-28T03:07:09.056Z,101158.03
2023-03-28T03:09:57.476Z,101163.06
2023-03-28T03:12:46.432Z,101159.59
2023-03-28T03:15:35.570Z,101150.69
2023-03-28T03:18:24.435Z,101144.81
2023-03-28T03:21:14.461Z,101151.31
2023-03-28T03:24:03.055Z,101152.13
2023-03-28T03:26:51.589Z,101149.84
2023-03-28T03:29:40.011Z,101155.00
2023-03-28T03:32:28.721Z,101157.66
2023-03-28T03:35:17.278Z,101160.44
2023-03-28T03:38:07.228Z,101161.38
2023-03-28T03:40:55.748Z,101151.50
2023-03-28T03:43:47.080Z,101152.47
2023-03-28T03:46:35.764Z,101157.25
2023-03-28T03:49:24.332Z,101160.25
2023-03-28T03:52:12.799Z,101170.13
2023-03-28T03:55:02.924Z,101163.88
2023-03-28T03:57:51.392Z,101164.13
2023-03-28T04:00:39.942Z,101154.75
2023-03-28T04:03:28.941Z,101160.03
2023-03-28T04:06:17.477Z,101170.75
2023-03-28T04:09:06.047Z,101164.38
2023-03-28T04:11:56.098Z,101177.09
2023-03-28T04:14:44.574Z,101176.72
2023-03-28T04:17:34.997Z,101178.66
2023-03-28T04:20:24.457Z,101183.44
2023-03-28T04:23:12.946Z,101183.38
2023-03-28T04:26:02.562Z,101189.22
2023-03-28T04:28:52.802Z,101184.88
2023-03-28T04:31:41.306Z,101191.00
2023-03-28T04:34:30.800Z,101187.72
2023-03-28T04:37:19.995Z,101178.97
2023-03-28T04:40:11.326Z,101192.53
2023-03-28T04:42:59.795Z,101187.63
2023-03-28T04:45:49.652Z,101185.69
2023-03-28T04:48:38.126Z,101187.13
2023-03-28T04:51:28.534Z,101189.13
2023-03-28T04:54:17.331Z,101194.91
2023-03-28T04:57:05.901Z,101201.16
2023-03-28T04:59:54.436Z,101199.22
2023-03-28T05:02:44.359Z,101213.84
2023-03-28T05:05:33.152Z,101177.66
2023-03-28T05:08:23.567Z,101208.56
2023-03-28T05:11:12.345Z,101207.34
2023-03-28T05:14:01.136Z,101219.53
2023-03-28T05:16:49.654Z,101227.78
2023-03-28T05:19:39.486Z,101224.41
2023-03-28T05:22:27.966Z,101234.25
2023-03-28T05:25:16.560Z,101232.34
2023-03-28T05:28:05.405Z,101237.00
2023-03-28T05:30:54.348Z,101231.16
2023-03-28T05:33:42.787Z,101239.69
2023-03-28T05:36:32.594Z,101239.34
2023-03-28T05:39:21.733Z,101243.66
2023-03-28T05:42:10.370Z,101248.38
2023-03-28T05:44:59.122Z,101253.19
2023-03-28T05:47:47.727Z,101256.84
2023-03-28T05:50:36.436Z,101264.19
2023-03-28T05:53:26.320Z,101257.38
2023-03-28T05:56:14.871Z,101264.63
2023-03-28T05:59:03.437Z,101267.63
2023-03-28T06:01:52.783Z,101275.69
2023-03-28T06:04:41.474Z,101273.78
2023-03-28T06:07:41.504Z,101274.25
2023-03-28T06:10:32.694Z,101274.22
2023-03-28T06:13:21.460Z,101276.75
2023-03-28T06:16:10.896Z,101277.47
2023-03-28T06:19:14.316Z,101278.88
2023-03-28T06:22:03.838Z,101281.00
2023-03-28T06:24:52.368Z,101272.97
2023-03-28T06:27:42.253Z,101280.47
2023-03-28T06:30:30.833Z,101266.69
2023-03-28T06:33:19.318Z,101282.66
2023-03-28T06:36:08.507Z,101284.06
2023-03-28T06:38:58.433Z,101273.69
2023-03-28T06:41:46.969Z,101277.69
2023-03-28T06:44:36.826Z,101280.09
2023-03-28T06:47:25.463Z,101278.19
2023-03-28T06:50:13.914Z,101285.66
2023-03-28T06:53:02.482Z,101287.13
2023-03-28T06:55:51.266Z,101265.88
2023-03-28T06:58:40.198Z,101281.47
2023-03-28T07:01:30.096Z,101268.88
2023-03-28T07:04:18.686Z,101283.19
2023-03-28T07:07:09.242Z,101294.94
2023-03-28T07:09:57.718Z,101271.16
2023-03-28T07:12:46.262Z,101309.84
2023-03-28T07:15:34.770Z,101305.06
2023-03-28T07:18:24.581Z,101318.44
2023-03-28T07:21:14.697Z,101307.13
2023-03-28T07:24:03.219Z,101321.22
2023-03-28T07:26:54.817Z,101321.72
2023-03-28T07:29:49.938Z,101323.47
2023-03-28T07:32:49.970Z,101332.22
2023-03-28T07:35:42.909Z,101267.09
2023-03-28T07:38:31.383Z,101326.63
2023-03-28T07:41:22.377Z,101332.53
2023-03-28T07:44:10.972Z,101338.13
2023-03-28T07:46:59.990Z,101336.81
2023-03-28T07:49:48.572Z,101346.47
2023-03-28T07:52:44.157Z,101337.47
2023-03-28T07:55:39.325Z,101353.44
2023-03-28T07:58:36.768Z,101352.41
2023-03-28T08:01:26.361Z,101357.78
2023-03-28T08:04:15.155Z,101358.97
2023-03-28T08:07:03.724Z,101357.31
2023-03-28T08:09:54.846Z,101355.34
2023-03-28T08:12:44.805Z,101361.88
2023-03-28T08:15:33.404Z,101346.53
2023-03-28T08:18:21.972Z,101358.41
2023-03-28T08:21:10.766Z,101351.19
2023-03-28T08:23:59.404Z,101346.19
2023-03-28T08:26:49.311Z,101354.56
2023-03-28T08:29:37.887Z,101363.56
2023-03-28T08:32:26.866Z,101329.41
2023-03-28T08:35:15.654Z,101362.06
2023-03-28T08:38:04.159Z,101366.72
2023-03-28T08:41:01.355Z,101367.56
2023-03-28T08:44:05.304Z,101366.44
2023-03-28T08:46:56.941Z,101373.78
2023-03-28T08:49:48.124Z,101375.34
2023-03-28T08:52:37.027Z,101373.13
2023-03-28T08:55:31.868Z,101362.84
2023-03-28T08:58:23.252Z,101368.03
2023-03-28T09:01:13.229Z,101371.16
2023-03-28T09:04:02.098Z,101372.38
2023-03-28T09:06:55.335Z,101362.47
2023-03-28T09:09:51.273Z,101363.72
2023-03-28T09:12:49.615Z,101377.91
2023-03-28T09:15:46.816Z,101356.22
2023-03-28T09:19:00.488Z,101352.88
2023-03-28T09:22:12.402Z,101363.06
2023-03-28T09:25:20.381Z,101362.88
2023-03-28T09:28:17.833Z,101358.38
2023-03-28T09:31:09.130Z,101362.88
2023-03-28T09:34:00.352Z,101352.00
2023-03-28T09:36:50.940Z,101349.69
2023-03-28T09:39:43.903Z,101354.38
2023-03-28T09:42:36.850Z,101348.19
2023-03-28T09:45:33.899Z,101329.25
2023-03-28T09:48:24.505Z,101325.84
2023-03-28T09:51:17.714Z,101338.09
2023-03-28T09:54:07.527Z,101347.00
2023-03-28T09:57:00.026Z,101348.13
2023-03-28T09:59:48.606Z,101340.59
2023-03-28T10:02:37.967Z,101332.75
2023-03-28T10:05:32.797Z,101337.97
2023-03-28T10:08:29.258Z,101334.47
2023-03-28T10:11:18.753Z,101328.38
2023-03-28T10:14:11.200Z,101336.44
2023-03-28T10:17:02.718Z,101337.66
2023-03-28T10:19:51.498Z,101333.38
2023-03-28T10:22:40.508Z,101336.78
2023-03-28T10:25:36.646Z,101334.28
2023-03-28T10:28:30.770Z,101243.59
2023-03-28T10:31:28.856Z,101334.97
2023-03-28T10:34:26.858Z,101325.94
2023-03-28T10:37:26.344Z,101328.59
2023-03-28T10:40:29.970Z,101328.59
2023-03-28T10:43:20.091Z,101325.06
2023-03-28T10:46:12.467Z,101313.19
2023-03-28T10:49:04.427Z,101318.56
2023-03-28T10:51:53.005Z,101305.28
2023-03-28T10:54:50.806Z,101310.06
2023-03-28T10:57:41.941Z,101308.50
2023-03-28T11:00:35.844Z,101296.56
2023-03-28T11:03:43.355Z,101295.78
2023-03-28T11:06:37.186Z,101289.81
2023-03-28T11:09:31.711Z,101280.53
2023-03-28T11:12:51.328Z,101288.09
2023-03-28T11:15:52.787Z,101281.13
2023-03-28T11:18:52.660Z,101277.06
2023-03-28T11:21:45.287Z,101277.75
2023-03-28T11:24:40.069Z,101277.59
2023-03-28T11:27:31.999Z,101258.19
2023-03-28T11:30:22.544Z,101260.38
2023-03-28T11:33:16.751Z,101262.22
2023-03-28T11:36:08.462Z,101233.16
2023-03-28T11:39:00.506Z,101266.59
2023-03-28T11:41:49.812Z,101254.94
2023-03-28T11:44:40.298Z,101246.47
2023-03-28T11:47:31.505Z,101245.41
2023-03-28T11:50:24.775Z,101245.38
2023-03-28T11:53:16.541Z,101231.41
2023-03-28T11:56:12.392Z,101225.00
2023-03-28T11:59:04.559Z,101234.81
2023-03-28T12:01:57.851Z,101237.25
2023-03-28T12:04:51.177Z,101226.78
2023-03-28T12:07:44.726Z,101254.34
2023-03-28T12:10:36.350Z,101221.75
2023-03-28T12:13:31.660Z,101210.75
2023-03-28T12:16:24.061Z,101208.13
2023-03-28T12:19:14.879Z,101196.41
2023-03-28T12:22:09.083Z,101155.44
2023-03-28T12:25:03.460Z,101182.06
2023-03-28T12:27:57.715Z,101185.84
2023-03-28T12:30:51.742Z,101174.34
2023-03-28T12:33:53.763Z,101158.78
2023-03-28T12:36:45.134Z,101171.09
2023-03-28T12:39:36.457Z,101163.09
2023-03-28T12:42:27.864Z,101157.19
2023-03-28T12:45:18.770Z,101153.94
2023-03-28T12:48:10.975Z,101120.94
2023-03-28T12:51:01.608Z,101150.53
2023-03-28T12:54:02.043Z,101132.28
2023-03-28T12:57:01.080Z,101146.97
2023-03-28T13:00:06.292Z,101145.47
2023-03-28T13:03:01.827Z,101142.38
2023-03-28T13:05:58.301Z,101141.03
2023-03-28T13:09:04.973Z,101108.47
2023-03-28T13:11:57.588Z,101133.50
2023-03-28T13:15:00.292Z,101132.44
2023-03-28T13:17:49.900Z,101124.19
2023-03-28T13:20:46.993Z,101123.25
2023-03-28T13:23:47.236Z,101111.28
2023-03-28T13:26:54.848Z,101102.00
2023-03-28T13:29:46.177Z,101105.78
2023-03-28T13:32:38.824Z,101093.38
2023-03-28T13:35:40.301Z,101086.59
2023-03-28T13:38:34.944Z,101079.72
2023-03-28T13:41:39.808Z,101069.16
2023-03-28T13:44:40.806Z,101063.41
2023-03-28T13:47:33.954Z,101019.66
2023-03-28T13:50:27.281Z,101057.56
2023-03-28T13:53:15.757Z,101058.91
2023-03-28T13:56:09.042Z,101045.81
2023-03-28T13:58:58.642Z,101003.00
2023-03-28T14:01:49.595Z,101034.28
2023-03-28T14:04:38.881Z,101028.13
2023-03-28T14:07:29.446Z,101029.91
2023-03-28T14:10:22.558Z,101023.50
2023-03-28T14:13:13.392Z,101017.00
2023-03-28T14:16:01.985Z,100996.66
2023-03-28T14:18:51.447Z,101005.56
2023-03-28T14:21:41.239Z,101007.22
2023-03-28T14:24:31.137Z,101005.97
2023-03-28T14:27:29.429Z,101003.31
2023-03-28T14:30:20.524Z,101001.25
2023-03-28T14:33:18.525Z,100953.25
2023-03-28T14:36:10.834Z,100990.34
2023-03-28T14:39:06.706Z,100983.38
2023-03-28T14:41:57.452Z,100983.22
2023-03-28T14:44:46.952Z,100974.56
2023-03-28T14:47:35.447Z,100963.13
2023-03-28T14:50:25.420Z,100962.78
2023-03-28T14:53:19.699Z,100951.47
2023-03-28T14:56:11.060Z,100947.72
2023-03-28T14:59:02.349Z,100895.25
2023-03-28T15:01:51.926Z,100940.03
2023-03-28T15:04:40.570Z,100924.91
2023-03-28T15:07:29.895Z,100922.09
2023-03-28T15:10:24.406Z,100918.72
2023-03-28T15:13:15.312Z,100920.25
2023-03-28T15:16:07.900Z,100912.31
2023-03-28T15:18:58.836Z,100900.31
2023-03-28T15:21:52.899Z,100893.88
2023-03-28T15:24:42.257Z,100889.03
2023-03-28T15:27:32.786Z,100876.84
2023-03-28T15:30:21.587Z,100879.00
2023-03-28T15:33:17.531Z,100880.97
2023-03-28T15:36:07.303Z,100880.19
2023-03-28T15:39:01.330Z,100879.19
2023-03-28T15:41:50.613Z,100867.41
2023-03-28T15:44:39.577Z,100866.75
2023-03-28T15:47:29.982Z,100863.88
2023-03-28T15:50:26.403Z,100868.41
2023-03-28T15:53:16.110Z,100860.81
2023-03-28T15:56:08.949Z,100818.72
2023-03-28T15:59:02.546Z,100849.63
2023-03-28T16:01:51.321Z,100854.25
2023-03-28T16:04:39.937Z,100852.81
2023-03-28T16:07:34.013Z,100849.06
2023-03-28T16:10:24.240Z,100850.44
2023-03-28T16:13:14.876Z,100844.00
2023-03-28T16:16:05.738Z,100837.97
2023-03-28T16:18:54.511Z,100843.22
2023-03-28T16:21:43.239Z,100825.44
2023-03-28T16:24:34.605Z,100838.41
2023-03-28T16:27:23.195Z,100834.13
2023-03-28T16:30:16.193Z,100822.03
2023-03-28T16:33:05.974Z,100823.78
2023-03-28T16:35:54.908Z,100808.25
2023-03-28T16:38:43.438Z,100805.75
2023-03-28T16:41:33.397Z,100801.72
2023-03-28T16:44:22.174Z,100805.06
2023-03-28T16:47:10.765Z,100797.25
2023-03-28T16:49:59.247Z,100794.81
2023-03-28T16:52:47.760Z,100800.75
2023-03-28T16:55:36.342Z,100786.44
2023-03-28T16:58:28.361Z,100792.38
2023-03-28T17:01:19.421Z,100792.56
2023-03-28T17:04:08.026Z,100775.81
2023-03-28T17:06:56.797Z,100771.84
2023-03-28T17:09:48.421Z,100761.13
2023-03-28T17:12:37.050Z,100768.72
2023-03-28T17:15:27.102Z,100765.59
2023-03-28T17:18:16.146Z,100758.09
2023-03-28T17:21:06.332Z,100753.31
2023-03-28T17:23:55.477Z,100748.97
2023-03-28T17:26:43.994Z,100738.81
2023-03-28T17:29:32.489Z,100735.41
2023-03-28T17:32:22.546Z,100729.38
2023-03-28T17:35:12.146Z,100733.34
2023-03-28T17:38:00.878Z,100730.47
2023-03-28T17:40:50.037Z,100721.63
2023-03-28T17:43:40.552Z,100683.66
2023-03-28T17:46:29.145Z,100700.63
2023-03-28T17:49:19.715Z,100712.41
2023-03-28T17:52:10.168Z,100707.97
2023-03-28T17:54:59.156Z,100702.16
2023-03-28T17:57:47.776Z,100690.91
2023-03-28T18:00:36.263Z,100691.66
2023-03-28T18:03:24.822Z,100691.94
2023-03-28T18:06:15.136Z,100693.50
2023-03-28T18:09:04.208Z,100680.75
2023-03-28T18:11:52.667Z,100692.31
2023-03-28T18:14:41.284Z,100692.56
2023-03-28T18:17:30.105Z,100680.22
2023-03-28T18:20:18.816Z,100680.56
2023-03-28T18:23:08.660Z,100691.66
2023-03-28T18:25:57.090Z,100684.72
2023-03-28T18:28:45.686Z,100681.38
2023-03-28T18:31:36.768Z,100680.28
2023-03-28T18:34:25.840Z,100680.19
2023-03-28T18:37:14.347Z,100680.09
2023-03-28T18:40:07.213Z,100679.59
2023-03-28T18:42:55.649Z,100678.84
2023-03-28T18:45:44.177Z,100677.75
2023-03-28T18:48:33.451Z,100670.97
2023-03-28T18:51:22.035Z,100669.88
2023-03-28T18:54:11.144Z,100691.56
2023-03-28T18:57:01.567Z,100695.22
2023-03-28T18:59:52.633Z,100695.59
2023-03-28T19:02:41.447Z,100708.97
2023-03-28T19:05:30.063Z,100708.88
2023-03-28T19:08:18.597Z,100722.44
2023-03-28T19:11:09.424Z,100720.09
2023-03-28T19:13:59.317Z,100729.69
2023-03-28T19:16:47.875Z,100724.56
2023-03-28T19:19:37.786Z,100718.53
2023-03-28T19:22:26.247Z,100705.16
2023-03-28T19:25:16.145Z,100687.00
2023-03-28T19:28:04.714Z,100696.69
2023-03-28T19:30:59.208Z,100705.91
2023-03-28T19:33:48.671Z,100698.88
2023-03-28T19:36:37.154Z,100696.19
2023-03-28T19:39:25.628Z,100696.38
2023-03-28T19:42:17.980Z,100695.63
2023-03-28T19:45:08.004Z,100700.56
2023-03-28T19:47:59.893Z,100689.56
2023-03-28T19:50:49.533Z,100682.72
2023-03-28T19:53:38.078Z,100676.66
2023-03-28T19:56:27.006Z,100694.84
2023-03-28T19:59:15.929Z,100708.06
2023-03-28T20:02:04.494Z,100709.25
2023-03-28T20:04:54.502Z,100701.81
2023-03-28T20:07:43.177Z,100726.75
2023-03-28T20:10:31.998Z,100721.41
2023-03-28T20:13:20.753Z,100709.94
2023-03-28T20:16:10.875Z,100690.97
2023-03-28T20:19:00.364Z,100661.84
2023-03-28T20:21:50.259Z,100612.88
2023-03-28T20:24:38.691Z,100573.72
2023-03-28T20:27:27.260Z,100564.75
2023-03-28T20:30:15.935Z,100580.03
2023-03-28T20:33:04.587Z,100565.81
2023-03-28T20:35:53.609Z,100583.88
2023-03-28T20:38:43.573Z,100598.22
2023-03-28T20:41:32.079Z,100604.88
2023-03-28T20:44:20.807Z,100623.22
2023-03-28T20:47:10.566Z,100613.03
2023-03-28T20:50:05.549Z,100602.69
2023-03-28T20:52:54.371Z,100621.00
2023-03-28T20:55:44.278Z,100619.22
2023-03-28T20:58:33.702Z,100629.34
2023-03-28T21:01:26.196Z,100630.06
2023-03-28T21:04:14.929Z,100615.09
2023-03-28T21:07:03.588Z,100520.44
2023-03-28T21:09:52.115Z,100621.41
2023-03-28T21:12:43.680Z,100635.94
2023-03-28T21:15:34.564Z,100636.06
2023-03-28T21:18:23.126Z,100608.75
2023-03-28T21:21:12.825Z,100557.50
2023-03-28T21:24:01.704Z,100572.94
2023-03-28T21:26:50.177Z,100582.84
2023-03-28T21:29:40.034Z,100598.56
2023-03-28T21:32:28.818Z,100605.59
2023-03-28T21:35:17.316Z,100606.59
2023-03-28T21:38:06.240Z,100614.75
2023-03-28T21:40:54.773Z,100610.03
2023-03-28T21:43:43.475Z,100609.56
2023-03-28T21:46:33.597Z,100619.03
2023-03-28T21:49:23.225Z,100621.09
2023-03-28T21:52:11.673Z,100619.38
2023-03-28T21:55:00.405Z,100616.78
2023-03-28T21:57:48.817Z,100618.31
2023-03-28T22:00:37.453Z,100637.31
2023-03-28T22:03:27.645Z,100640.53
2023-03-28T22:06:17.569Z,100654.72
2023-03-28T22:09:06.286Z,100669.28
2023-03-28T22:11:55.888Z,100683.97
2023-03-28T22:14:44.674Z,100699.50
2023-03-28T22:17:36.562Z,100712.13
2023-03-28T22:20:28.457Z,100624.31
2023-03-28T22:23:17.091Z,100694.44
2023-03-28T22:26:07.037Z,100677.19
2023-03-28T22:28:57.565Z,100696.03
2023-03-28T22:31:46.109Z,100695.13
2023-03-28T22:34:36.268Z,100696.03
2023-03-28T22:37:26.505Z,100681.72
2023-03-28T22:40:15.196Z,100676.03
2023-03-28T22:43:04.704Z,100677.31
2023-03-28T22:45:53.292Z,100672.91
2023-03-28T22:48:42.019Z,100668.28
2023-03-28T22:51:30.505Z,100647.59
2023-03-28T22:54:22.801Z,100614.94
2023-03-28T22:57:11.522Z,100616.28
2023-03-28T23:00:01.641Z,100574.97
2023-03-28T23:02:50.443Z,100586.41
2023-03-28T23:05:38.968Z,100595.28
2023-03-28T23:08:27.425Z,100567.53
2023-03-28T23:11:17.301Z,100563.91
2023-03-28T23:14:05.767Z,100569.88
2023-03-28T23:16:54.278Z,100556.84
2023-03-28T23:19:43.602Z,100544.31
2023-03-28T23:22:32.056Z,100534.47
2023-03-28T23:25:21.611Z,100533.69
2023-03-28T23:28:11.381Z,100517.38
2023-03-28T23:31:00.043Z,100525.69
2023-03-28T23:33:48.787Z,100523.63
2023-03-28T23:36:41.100Z,100423.28
2023-03-28T23:39:29.653Z,100521.66
2023-03-28T23:42:18.101Z,100523.91
2023-03-28T23:45:08.907Z,100519.41
2023-03-28T23:47:57.362Z,100514.44
2023-03-28T23:50:45.867Z,100519.06
2023-03-28T23:53:34.353Z,100514.63
2023-03-28T23:56:23.892Z,100515.75
2023-03-28T23:59:12.452Z,100522.59
